createdAt,value
2018-12-15T00:01:18.727Z,4.87
2018-12-15T00:03:50.799Z,4.73
2018-12-15T00:06:20.809Z,5.60
2018-12-15T00:08:50.840Z,6.60
2018-12-15T00:11:32.413Z,4.67
2018-12-15T00:14:13.447Z,6.63
2018-12-15T00:16:49.296Z,5.10
2018-12-15T00:19:21.206Z,4.87
2018-12-15T00:22:01.902Z,5.63
2018-12-15T00:24:33.410Z,4.73
2018-12-15T00:27:14.815Z,4.97
2018-12-15T00:29:55.744Z,5.50
2018-12-15T00:32:36.735Z,4.90
2018-12-15T00:35:17.978Z,5.87
2018-12-15T00:37:49.726Z,6.23
2018-12-15T00:40:31.201Z,5.37
2018-12-15T00:43:02.624Z,6.40
2018-12-15T00:45:43.279Z,7.13
2018-12-15T00:48:17.978Z,5.67
2018-12-15T00:50:59.530Z,6.03
2018-12-15T00:53:34.009Z,8.30
2018-12-15T00:56:05.363Z,6.13
2018-12-15T00:58:37.389Z,6.17
2018-12-15T01:01:18.969Z,6.57
2018-12-15T01:03:50.693Z,6.73
2018-12-15T01:06:31.324Z,7.27
2018-12-15T01:09:19.100Z,9.47
2018-12-15T01:11:49.011Z,7.17
2018-12-15T01:14:20.238Z,7.30
2018-12-15T01:17:00.866Z,7.93
2018-12-15T01:19:42.102Z,7.40
2018-12-15T01:22:11.718Z,8.17
2018-12-15T01:24:41.851Z,8.53
2018-12-15T01:27:12.021Z,9.03
2018-12-15T01:29:48.849Z,8.07
2018-12-15T01:32:24.122Z,7.47
2018-12-15T01:34:56.214Z,8.70
2018-12-15T01:37:36.960Z,7.63
2018-12-15T01:40:06.729Z,6.10
2018-12-15T01:42:39.024Z,6.97
2018-12-15T01:45:19.639Z,8.70
2018-12-15T01:47:49.335Z,8.00
2018-12-15T01:50:20.729Z,7.53
2018-12-15T01:52:52.766Z,6.90
2018-12-15T01:55:28.692Z,6.43
2018-12-15T01:58:09.466Z,8.43
2018-12-15T02:00:50.542Z,7.90
2018-12-15T02:03:22.155Z,6.73
2018-12-15T02:06:03.609Z,7.63
2018-12-15T02:08:44.675Z,6.90
2018-12-15T02:11:19.245Z,7.80
2018-12-15T02:13:54.139Z,7.13
2018-12-15T02:16:35.085Z,7.97
2018-12-15T02:19:09.418Z,6.47
2018-12-15T02:21:50.270Z,8.00
2018-12-15T02:24:21.686Z,7.37
2018-12-15T02:26:52.923Z,7.80
2018-12-15T02:29:23.046Z,7.37
2018-12-15T02:31:54.906Z,5.90
2018-12-15T02:34:27.035Z,7.67
2018-12-15T02:37:07.790Z,6.33
2018-12-15T02:39:43.576Z,6.77
2018-12-15T02:42:19.893Z,7.70
2018-12-15T02:45:01.136Z,7.13
2018-12-15T02:47:30.751Z,6.50
2018-12-15T02:50:12.021Z,6.40
2018-12-15T02:52:44.139Z,7.37
2018-12-15T02:55:24.795Z,7.33
2018-12-15T02:57:59.607Z,7.43
2018-12-15T03:00:39.567Z,7.37
2018-12-15T03:03:12.492Z,6.37
2018-12-15T03:05:58.765Z,5.73
2018-12-15T03:08:39.898Z,7.13
2018-12-15T03:11:11.902Z,5.90
2018-12-15T03:13:48.392Z,6.37
2018-12-15T03:16:23.645Z,8.40
2018-12-15T03:22:30.892Z,7.00
2018-12-15T03:25:15.189Z,7.33
2018-12-15T03:27:57.667Z,6.77
2018-12-15T03:30:36.370Z,6.80
2018-12-15T03:33:14.181Z,6.07
2018-12-15T03:45:26.425Z,6.90
2018-12-15T03:48:13.678Z,6.17
2018-12-15T03:51:01.685Z,6.57
2018-12-15T03:53:36.723Z,6.83
2018-12-15T03:56:17.888Z,6.57
2018-12-15T03:59:08.016Z,7.30
2018-12-15T04:01:56.905Z,7.53
2018-12-15T04:04:44.182Z,7.63
2018-12-15T04:07:27.736Z,7.03
2018-12-15T04:10:15.012Z,8.70
2018-12-15T04:12:48.889Z,8.67
2018-12-15T04:15:32.130Z,8.40
2018-12-15T04:18:18.184Z,7.13
2018-12-15T04:21:03.314Z,8.17
2018-12-15T04:24:04.128Z,8.80
2018-12-15T04:29:34.873Z,7.23
2018-12-15T04:34:56.479Z,7.73
2018-12-15T04:37:45.664Z,8.63
2018-12-15T04:40:34.382Z,8.10
2018-12-15T04:43:30.077Z,8.20
2018-12-15T04:46:23.094Z,7.60
2018-12-15T04:52:15.720Z,7.33
2018-12-15T04:54:58.686Z,6.87
2018-12-15T04:57:50.176Z,7.10
2018-12-15T05:00:35.138Z,6.87
2018-12-15T05:03:09.933Z,8.47
2018-12-15T05:05:43.308Z,6.93
2018-12-15T05:08:26.790Z,8.93
2018-12-15T05:11:16.046Z,8.50
2018-12-15T05:13:50.887Z,8.53
2018-12-15T05:16:38.895Z,7.00
2018-12-15T05:19:22.977Z,8.20
2018-12-15T05:22:08.044Z,7.77
2018-12-15T05:25:00.900Z,6.47
2018-12-15T05:27:59.157Z,7.67
2018-12-15T05:30:45.337Z,6.90
2018-12-15T05:33:19.917Z,7.53
2018-12-15T05:36:05.053Z,7.20
2018-12-15T05:38:51.404Z,6.13
2018-12-15T05:41:37.476Z,6.73
2018-12-15T05:44:35.793Z,8.63
2018-12-15T05:47:13.319Z,7.90
2018-12-15T05:50:02.100Z,8.50
2018-12-15T05:53:14.225Z,6.10
2018-12-15T06:02:45.233Z,9.27
2018-12-15T06:05:22.269Z,8.27
2018-12-15T06:07:59.603Z,7.53
2018-12-15T06:10:49.113Z,7.37
2018-12-15T06:16:12.736Z,7.60
2018-12-15T06:18:56.921Z,7.20
2018-12-15T06:21:53.393Z,8.23
2018-12-15T06:24:45.847Z,9.90
2018-12-15T06:27:27.674Z,7.13
2018-12-15T06:30:11.273Z,9.27
2018-12-15T06:32:53.123Z,8.43
2018-12-15T06:35:41.875Z,8.97
2018-12-15T06:38:27.773Z,8.47
2018-12-15T06:44:02.216Z,8.77
2018-12-15T06:46:42.233Z,9.30
2018-12-15T06:49:22.407Z,8.00
2018-12-15T06:52:15.137Z,9.33
2018-12-15T06:54:52.833Z,6.30
2018-12-15T07:00:21.339Z,8.90
2018-12-15T07:03:04.436Z,7.83
2018-12-15T07:05:50.502Z,9.40
2018-12-15T07:08:28.418Z,8.50
2018-12-15T07:11:05.373Z,9.70
2018-12-15T07:13:47.337Z,9.00
2018-12-15T07:16:32.605Z,9.00
2018-12-15T07:28:07.870Z,8.90
2018-12-15T07:30:44.260Z,7.97
2018-12-15T07:33:43.449Z,9.83
2018-12-15T07:36:21.538Z,8.63
2018-12-15T07:39:05.750Z,10.17
2018-12-15T07:41:43.811Z,8.13
2018-12-15T07:44:25.414Z,9.17
2018-12-15T07:47:23.697Z,10.60
2018-12-15T07:53:03.563Z,9.97
2018-12-15T07:55:50.258Z,10.27
2018-12-15T07:58:33.309Z,8.10
2018-12-15T08:01:24.101Z,10.47
2018-12-15T08:04:01.453Z,9.70
2018-12-15T08:06:38.057Z,9.40
2018-12-15T08:09:15.366Z,10.23
2018-12-15T08:12:13.081Z,11.27
2018-12-15T08:20:55.584Z,10.80
2018-12-15T08:23:31.390Z,9.53
2018-12-15T08:26:15.703Z,10.13
2018-12-15T08:28:54.899Z,11.80
2018-12-15T08:31:39.126Z,8.73
2018-12-15T08:40:34.160Z,10.13
2018-12-15T08:43:19.834Z,11.37
2018-12-15T08:49:11.303Z,12.83
2018-12-15T08:54:37.463Z,18.10
2018-12-15T08:57:12.464Z,17.47
2018-12-15T09:00:02.341Z,17.60
2018-12-15T09:05:47.694Z,15.43
2018-12-15T09:08:25.046Z,12.17
2018-12-15T09:11:03.428Z,10.67
2018-12-15T09:13:47.723Z,10.37
2018-12-15T09:16:39.243Z,23.20
2018-12-15T09:19:12.158Z,11.80
2018-12-15T09:22:01.333Z,16.97
2018-12-15T09:24:41.251Z,12.60
2018-12-15T09:33:33.519Z,10.63
2018-12-15T09:36:29.914Z,10.00
2018-12-15T09:42:32.330Z,9.63
2018-12-15T09:51:06.404Z,7.20
2018-12-15T09:53:48.636Z,8.83
2018-12-15T09:56:29.175Z,9.07
2018-12-15T10:02:01.311Z,9.07
2018-12-15T10:04:44.931Z,9.13
2018-12-15T10:07:40.982Z,10.73
2018-12-15T10:10:28.677Z,8.80
2018-12-15T10:13:26.325Z,8.40
2018-12-15T10:16:08.434Z,10.00
2018-12-15T10:18:48.416Z,10.40
2018-12-15T10:21:36.719Z,8.07
2018-12-15T10:24:18.325Z,8.70
2018-12-15T10:27:11.998Z,10.17
2018-12-15T10:36:16.504Z,10.83
2018-12-15T10:42:10.327Z,9.67
2018-12-15T10:44:42.460Z,9.27
2018-12-15T10:47:17.392Z,10.53
2018-12-15T10:49:48.663Z,10.57
2018-12-15T10:52:29.492Z,9.63
2018-12-15T10:54:59.114Z,12.10
2018-12-15T10:57:33.972Z,10.43
2018-12-15T11:00:05.522Z,13.03
2018-12-15T11:02:40.322Z,9.33
2018-12-15T11:05:21.068Z,9.23
2018-12-15T11:07:52.508Z,9.63
2018-12-15T11:10:28.679Z,9.27
2018-12-15T11:13:10.001Z,9.63
2018-12-15T11:15:44.211Z,9.80
2018-12-15T11:18:25.063Z,9.47
2018-12-15T11:21:06.126Z,8.00
2018-12-15T11:23:37.672Z,11.93
2018-12-15T11:26:19.270Z,9.70
2018-12-15T11:28:50.884Z,8.70
2018-12-15T11:31:21.167Z,9.83
2018-12-15T11:33:51.196Z,10.80
2018-12-15T11:36:25.807Z,9.43
2018-12-15T11:39:00.139Z,11.30
2018-12-15T11:41:31.467Z,10.33
2018-12-15T11:44:12.551Z,8.00
2018-12-15T11:46:46.840Z,9.00
2018-12-15T11:49:21.570Z,10.87
2018-12-15T11:51:52.786Z,10.43
2018-12-15T11:54:24.924Z,9.77
2018-12-15T11:57:00.717Z,10.53
2018-12-15T11:59:41.502Z,9.13
2018-12-15T12:02:11.093Z,11.60
2018-12-15T12:04:46.822Z,11.80
2018-12-15T12:07:18.663Z,10.57
2018-12-15T12:13:00.368Z,10.83
2018-12-15T12:18:41.081Z,9.23
2018-12-15T12:21:15.194Z,9.03
2018-12-15T12:23:46.631Z,8.50
2018-12-15T12:26:28.220Z,9.03
2018-12-15T12:29:02.894Z,7.87
2018-12-15T12:31:43.502Z,8.97
2018-12-15T12:34:18.893Z,10.67
2018-12-15T12:36:59.804Z,7.67
2018-12-15T12:39:33.914Z,9.23
2018-12-15T12:45:13.786Z,10.50
2018-12-15T12:50:52.797Z,9.73
2018-12-15T12:53:24.099Z,10.50
2018-12-15T12:56:19.969Z,8.90
2018-12-15T12:58:51.613Z,8.37
2018-12-15T13:04:36.596Z,10.43
2018-12-15T13:07:19.927Z,10.30
2018-12-15T13:09:53.898Z,9.13
2018-12-15T13:12:36.039Z,8.97
2018-12-15T13:21:45.106Z,8.10
2018-12-15T13:24:13.366Z,8.70
2018-12-15T13:29:48.028Z,7.70
2018-12-15T13:35:49.780Z,6.57
2018-12-15T13:38:18.146Z,7.70
2018-12-15T13:40:46.437Z,8.57
2018-12-15T13:43:38.156Z,8.00
2018-12-15T13:46:06.446Z,7.70
2018-12-15T13:48:34.746Z,7.37
2018-12-15T13:51:03.068Z,8.57
2018-12-15T13:53:50.754Z,7.23
2018-12-15T13:56:19.064Z,9.83
2018-12-15T13:58:53.767Z,8.03
2018-12-15T14:04:34.604Z,7.00
2018-12-15T14:07:02.884Z,7.50
2018-12-15T14:09:31.165Z,7.13
2018-12-15T14:11:59.453Z,7.93
2018-12-15T14:14:27.725Z,8.07
2018-12-15T14:16:56.019Z,8.33
2018-12-15T14:19:24.293Z,9.50
2018-12-15T14:22:18.632Z,8.70
2018-12-15T14:24:57.405Z,8.20
2018-12-15T14:27:25.678Z,6.93
2018-12-15T14:29:53.960Z,7.00
2018-12-15T14:32:22.213Z,8.73
2018-12-15T14:37:57.273Z,9.27
2018-12-15T14:43:31.973Z,8.33
2018-12-15T14:46:00.279Z,7.37
2018-12-15T14:48:35.153Z,9.37
2018-12-15T14:51:20.556Z,9.37
2018-12-15T14:53:48.856Z,8.57
2018-12-15T14:56:18.347Z,7.17
2018-12-15T14:58:46.637Z,6.77
2018-12-15T15:04:41.328Z,8.27
2018-12-15T15:07:09.624Z,6.87
2018-12-15T15:12:58.809Z,7.57
2018-12-15T15:15:27.176Z,9.27
2018-12-15T15:17:55.497Z,8.40
2018-12-15T15:20:49.620Z,8.93
2018-12-15T15:23:39.633Z,6.90
2018-12-15T15:26:07.918Z,8.27
2018-12-15T15:28:36.226Z,8.13
2018-12-15T15:31:04.522Z,7.93
2018-12-15T15:33:32.825Z,7.87
2018-12-15T15:36:01.394Z,7.60
2018-12-15T15:41:52.897Z,7.43
2018-12-15T15:46:53.830Z,6.93
2018-12-15T15:49:22.089Z,7.63
2018-12-15T15:52:05.287Z,7.67
2018-12-15T15:54:43.158Z,9.03
2018-12-15T15:57:11.445Z,11.03
2018-12-15T15:59:39.845Z,7.73
2018-12-15T16:05:14.026Z,8.20
2018-12-15T16:10:47.862Z,8.97
2018-12-15T16:13:16.171Z,7.07
2018-12-15T16:18:50.987Z,8.67
2018-12-15T16:21:19.263Z,8.10
2018-12-15T16:23:47.528Z,8.40
2018-12-15T16:26:15.795Z,9.03
2018-12-15T16:28:56.602Z,7.03
2018-12-15T16:31:24.879Z,7.50
2018-12-15T16:33:53.290Z,8.27
2018-12-15T16:36:21.591Z,7.37
2018-12-15T16:38:49.900Z,7.37
2018-12-15T16:44:24.078Z,8.27
2018-12-15T16:46:59.263Z,8.00
2018-12-15T16:52:41.239Z,16.80
2018-12-15T16:55:10.061Z,13.83
2018-12-15T16:57:45.992Z,11.77
2018-12-15T17:00:14.528Z,12.57
2018-12-15T17:02:51.373Z,10.37
2018-12-15T17:05:19.713Z,11.50
2018-12-15T17:10:54.044Z,8.73
2018-12-15T17:13:22.418Z,9.07
2018-12-15T17:15:53.636Z,9.90
2018-12-15T17:18:34.917Z,7.73
2018-12-15T17:21:04.977Z,8.43
2018-12-15T17:23:33.386Z,8.77
2018-12-15T17:26:14.341Z,8.57
2018-12-15T17:28:42.643Z,7.27
2018-12-15T17:34:17.096Z,8.13
2018-12-15T17:36:45.354Z,7.53
2018-12-15T17:39:13.917Z,9.13
2018-12-15T17:41:55.030Z,8.80
2018-12-15T17:47:33.449Z,8.17
2018-12-15T17:53:04.702Z,8.77
2018-12-15T17:55:58.202Z,8.10
2018-12-15T17:58:26.516Z,8.30
2018-12-15T18:01:01.068Z,7.87
2018-12-15T18:03:42.406Z,8.57
2018-12-15T18:06:10.740Z,9.10
2018-12-15T18:08:39.044Z,9.57
2018-12-15T18:11:08.325Z,8.23
2018-12-15T18:28:58.700Z,9.57
2018-12-15T18:31:27.007Z,8.80
2018-12-15T18:34:15.372Z,13.10
2018-12-15T18:36:43.714Z,11.67
2018-12-15T18:39:12.034Z,10.77
2018-12-15T18:51:01.643Z,9.93
2018-12-15T18:53:33.592Z,10.53
2018-12-15T18:59:15.354Z,10.13
2018-12-15T19:01:43.653Z,10.40
2018-12-15T19:07:32.232Z,10.30
2018-12-15T19:10:12.850Z,9.37
2018-12-15T19:12:57.654Z,12.47
2018-12-15T19:15:29.046Z,10.67
2018-12-15T19:17:58.921Z,12.13
2018-12-15T19:33:00.418Z,10.50
2018-12-15T19:35:35.279Z,10.70
2018-12-15T19:38:11.017Z,10.57
2018-12-15T19:56:01.024Z,11.90
2018-12-15T20:01:32.919Z,10.77
2018-12-15T20:07:18.135Z,11.80
2018-12-15T20:12:51.118Z,12.33
2018-12-15T20:15:40.559Z,12.10
2018-12-15T20:18:17.451Z,12.03
2018-12-15T20:23:56.518Z,12.33
2018-12-15T20:29:47.040Z,11.47
2018-12-15T20:35:39.471Z,12.23
2018-12-15T20:41:12.690Z,12.87
2018-12-15T20:47:10.506Z,13.23
2018-12-15T20:49:52.260Z,11.83
2018-12-15T20:52:21.416Z,11.70
2018-12-15T20:54:49.842Z,13.93
2018-12-15T20:57:18.189Z,11.30
2018-12-15T21:06:03.399Z,12.67
2018-12-15T21:11:43.169Z,10.77
2018-12-15T21:17:24.461Z,11.57
2018-12-15T21:23:29.219Z,12.00
2018-12-15T21:26:14.450Z,11.10
2018-12-15T21:44:42.463Z,10.73
2018-12-15T21:47:12.498Z,10.53
2018-12-15T21:52:50.287Z,10.33
2018-12-15T21:55:39.657Z,10.70
2018-12-15T22:01:14.163Z,13.23
2018-12-15T22:03:56.901Z,11.00
2018-12-15T22:06:39.186Z,11.43
2018-12-15T22:09:22.507Z,10.17
2018-12-15T22:12:15.785Z,9.87
2018-12-15T22:15:08.830Z,9.50
2018-12-15T22:20:59.580Z,13.30
2018-12-15T22:23:27.950Z,10.50
2018-12-15T22:32:18.926Z,10.90
2018-12-15T22:41:24.756Z,12.63
2018-12-15T22:47:11.714Z,11.77
2018-12-15T23:05:37.618Z,13.67
2018-12-15T23:11:34.506Z,12.17
2018-12-15T23:14:06.797Z,12.20
2018-12-15T23:19:42.301Z,13.07
2018-12-15T23:25:19.755Z,12.83
2018-12-15T23:28:16.321Z,12.37
2018-12-15T23:33:58.051Z,10.57
2018-12-15T23:36:34.496Z,13.40
2018-12-15T23:39:03.776Z,11.77
2018-12-15T23:41:32.114Z,12.17
2018-12-15T23:44:00.413Z,12.10
2018-12-15T23:46:34.430Z,13.23
2018-12-15T23:52:12.146Z,13.20
2018-12-15T23:54:53.787Z,12.90
2018-12-15T23:57:35.312Z,10.60
